createdAt,value
2023-08-12T00:00:13.443Z,97.70
2023-08-12T00:02:41.255Z,97.78
2023-08-12T00:05:08.937Z,99.21
2023-08-12T00:07:35.637Z,99.42
2023-08-12T00:10:04.514Z,99.15
2023-08-12T00:12:34.551Z,98.70
2023-08-12T00:15:01.286Z,100.00
2023-08-12T00:17:28.261Z,99.30
2023-08-12T00:19:54.700Z,98.89
2023-08-12T00:22:21.274Z,99.62
2023-08-12T00:24:47.788Z,99.30
2023-08-12T00:27:14.365Z,99.88
2023-08-12T00:29:41.009Z,99.95
2023-08-12T00:32:10.399Z,99.47
2023-08-12T00:34:37.493Z,100.00
2023-08-12T00:37:04.043Z,100.00
2023-08-12T00:39:30.556Z,100.00
2023-08-12T00:41:57.270Z,100.00
2023-08-12T00:44:23.813Z,100.00
2023-08-12T00:46:51.617Z,100.00
2023-08-12T00:49:18.584Z,100.00
2023-08-12T00:51:46.359Z,100.00
2023-08-12T00:54:15.496Z,100.00
2023-08-12T00:56:42.506Z,100.00
2023-08-12T00:59:12.973Z,100.00
2023-08-12T01:01:44.768Z,100.00
2023-08-12T01:04:11.546Z,100.00
2023-08-12T01:06:38.123Z,100.00
2023-08-12T01:09:06.486Z,99.46
2023-08-12T01:11:42.181Z,99.67
2023-08-12T01:14:33.419Z,99.05
2023-08-12T01:17:04.617Z,98.83
2023-08-12T01:19:36.576Z,99.24
2023-08-12T01:22:04.781Z,100.00
2023-08-12T01:24:42.959Z,100.00
2023-08-12T01:27:11.489Z,100.00
2023-08-12T01:29:47.676Z,100.00
2023-08-12T01:32:31.359Z,100.00
2023-08-12T01:35:17.223Z,100.00
2023-08-12T01:37:44.343Z,100.00
2023-08-12T01:40:12.471Z,100.00
2023-08-12T01:42:41.527Z,100.00
2023-08-12T01:45:08.531Z,100.00
2023-08-12T01:47:35.035Z,100.00
2023-08-12T01:50:01.570Z,100.00
2023-08-12T01:52:28.150Z,100.00
2023-08-12T01:54:54.577Z,100.00
2023-08-12T01:57:21.076Z,100.00
2023-08-12T01:59:47.612Z,100.00
2023-08-12T02:02:14.256Z,100.00
2023-08-12T02:04:43.556Z,100.00
2023-08-12T02:07:10.288Z,100.00
2023-08-12T02:09:36.963Z,100.00
2023-08-12T02:12:03.581Z,100.00
2023-08-12T02:14:29.998Z,100.00
2023-08-12T02:16:56.410Z,100.00
2023-08-12T02:19:22.887Z,100.00
2023-08-12T02:21:49.346Z,100.00
2023-08-12T02:24:15.818Z,100.00
2023-08-12T02:26:42.209Z,100.00
2023-08-12T02:29:08.678Z,100.00
2023-08-12T02:31:35.205Z,100.00
2023-08-12T02:34:01.700Z,100.00
2023-08-12T02:36:28.121Z,100.00
2023-08-12T02:38:54.542Z,100.00
2023-08-12T02:41:20.949Z,100.00
2023-08-12T02:43:47.395Z,100.00
2023-08-12T02:46:16.242Z,100.00
2023-08-12T02:48:43.633Z,100.00
2023-08-12T02:51:11.224Z,100.00
2023-08-12T02:53:37.845Z,100.00
2023-08-12T02:56:04.559Z,100.00
2023-08-12T02:58:31.172Z,100.00
2023-08-12T03:00:57.909Z,100.00
2023-08-12T03:03:24.451Z,100.00
2023-08-12T03:05:50.961Z,100.00
2023-08-12T03:08:17.417Z,100.00
2023-08-12T03:10:46.481Z,100.00
2023-08-12T03:13:12.925Z,100.00
2023-08-12T03:15:40.872Z,100.00
2023-08-12T03:18:07.345Z,100.00
2023-08-12T03:20:34.144Z,100.00
2023-08-12T03:23:01.360Z,100.00
2023-08-12T03:25:27.833Z,100.00
2023-08-12T03:27:54.253Z,100.00
2023-08-12T03:30:20.743Z,100.00
2023-08-12T03:32:47.225Z,100.00
2023-08-12T03:35:13.654Z,100.00
2023-08-12T03:37:40.048Z,100.00
2023-08-12T03:40:07.524Z,100.00
2023-08-12T03:42:33.993Z,100.00
2023-08-12T03:45:00.481Z,100.00
2023-08-12T03:47:26.977Z,100.00
2023-08-12T03:49:53.466Z,100.00
2023-08-12T03:52:19.887Z,100.00
2023-08-12T03:54:46.325Z,100.00
2023-08-12T03:57:13.460Z,100.00
2023-08-12T03:59:40.097Z,100.00
2023-08-12T04:02:06.991Z,100.00
2023-08-12T04:04:33.431Z,100.00
2023-08-12T04:06:59.850Z,100.00
2023-08-12T04:09:26.348Z,100.00
2023-08-12T04:11:52.808Z,100.00
2023-08-12T04:14:19.244Z,100.00
2023-08-12T04:16:45.725Z,100.00
2023-08-12T04:19:12.154Z,100.00
2023-08-12T04:21:38.638Z,100.00
2023-08-12T04:24:05.388Z,100.00
2023-08-12T04:26:31.882Z,100.00
2023-08-12T04:28:58.312Z,100.00
2023-08-12T04:31:24.886Z,100.00
2023-08-12T04:33:53.815Z,100.00
2023-08-12T04:36:20.778Z,100.00
2023-08-12T04:38:47.226Z,100.00
2023-08-12T04:41:13.679Z,100.00
2023-08-12T04:43:40.165Z,100.00
2023-08-12T04:46:06.653Z,100.00
2023-08-12T04:48:33.208Z,100.00
2023-08-12T04:51:04.109Z,100.00
2023-08-12T04:53:30.697Z,100.00
2023-08-12T04:55:57.838Z,100.00
2023-08-12T04:58:24.354Z,100.00
2023-08-12T05:00:53.316Z,100.00
2023-08-12T05:03:19.907Z,100.00
2023-08-12T05:05:53.575Z,100.00
2023-08-12T05:08:20.321Z,100.00
2023-08-12T05:10:50.266Z,100.00
2023-08-12T05:13:17.301Z,100.00
2023-08-12T05:15:48.389Z,100.00
2023-08-12T05:18:15.379Z,100.00
2023-08-12T05:20:44.704Z,100.00
2023-08-12T05:23:13.455Z,100.00
2023-08-12T05:25:40.553Z,100.00
2023-08-12T05:28:07.186Z,100.00
2023-08-12T05:30:33.627Z,100.00
2023-08-12T05:33:00.193Z,100.00
2023-08-12T05:35:27.124Z,99.20
2023-08-12T05:37:54.206Z,96.84
2023-08-12T05:40:20.641Z,97.76
2023-08-12T05:42:47.101Z,98.39
2023-08-12T05:45:13.516Z,98.10
2023-08-12T05:47:40.068Z,97.99
2023-08-12T05:50:07.522Z,96.98
2023-08-12T05:52:34.011Z,97.33
2023-08-12T05:55:00.531Z,99.51
2023-08-12T05:57:29.324Z,96.19
2023-08-12T05:59:56.242Z,96.21
2023-08-12T06:02:22.697Z,94.84
2023-08-12T06:04:49.153Z,95.23
2023-08-12T06:07:15.555Z,94.84
2023-08-12T06:09:41.954Z,93.43
2023-08-12T06:12:08.607Z,93.04
2023-08-12T06:14:38.532Z,95.51
2023-08-12T06:17:05.061Z,90.95
2023-08-12T06:19:31.508Z,94.87
2023-08-12T06:21:58.027Z,95.29
2023-08-12T06:24:24.615Z,94.64
2023-08-12T06:26:51.086Z,98.00
2023-08-12T06:29:17.649Z,99.78
2023-08-12T06:31:44.091Z,100.00
2023-08-12T06:34:10.520Z,100.00
2023-08-12T06:36:36.974Z,100.00
2023-08-12T06:39:04.522Z,98.31
2023-08-12T06:41:30.925Z,100.00
2023-08-12T06:43:57.336Z,100.00
2023-08-12T06:46:23.871Z,98.81
2023-08-12T06:48:50.365Z,100.00
2023-08-12T06:51:16.839Z,98.62
2023-08-12T06:53:43.305Z,99.39
2023-08-12T06:56:10.068Z,100.00
2023-08-12T06:58:36.466Z,98.05
2023-08-12T07:01:02.979Z,98.46
2023-08-12T07:03:29.612Z,99.58
2023-08-12T07:05:56.188Z,98.28
2023-08-12T07:08:22.687Z,100.00
2023-08-12T07:10:49.148Z,100.00
2023-08-12T07:13:15.662Z,100.00
2023-08-12T07:15:42.117Z,99.48
2023-08-12T07:18:08.698Z,99.54
2023-08-12T07:20:35.289Z,100.00
2023-08-12T07:23:01.768Z,99.07
2023-08-12T07:25:28.182Z,100.00
2023-08-12T07:27:54.637Z,99.82
2023-08-12T07:30:21.104Z,97.95
2023-08-12T07:32:47.610Z,99.16
2023-08-12T07:35:14.266Z,100.00
2023-08-12T07:37:41.030Z,100.00
2023-08-12T07:40:08.968Z,99.30
2023-08-12T07:42:35.535Z,100.00
2023-08-12T07:45:02.009Z,100.00
2023-08-12T07:47:28.418Z,100.00
2023-08-12T07:49:54.840Z,99.93
2023-08-12T07:52:21.501Z,98.45
2023-08-12T07:54:47.986Z,99.09
2023-08-12T07:57:14.445Z,98.06
2023-08-12T07:59:40.902Z,96.43
2023-08-12T08:02:07.445Z,98.28
2023-08-12T08:04:34.960Z,97.33
2023-08-12T08:07:01.677Z,95.57
2023-08-12T08:09:28.234Z,96.31
2023-08-12T08:11:56.315Z,96.13
2023-08-12T08:14:25.636Z,95.73
2023-08-12T08:16:52.113Z,100.00
2023-08-12T08:19:19.784Z,100.00
2023-08-12T08:21:46.552Z,100.00
2023-08-12T08:24:13.961Z,99.91
2023-08-12T08:26:41.801Z,100.00
2023-08-12T08:29:08.371Z,97.75
2023-08-12T08:31:34.796Z,99.02
2023-08-12T08:34:01.210Z,100.00
2023-08-12T08:36:27.612Z,100.00
2023-08-12T08:38:54.019Z,100.00
2023-08-12T08:41:20.993Z,100.00
2023-08-12T08:43:49.208Z,100.00
2023-08-12T08:46:17.202Z,100.00
2023-08-12T08:48:44.354Z,100.00
2023-08-12T08:51:12.055Z,100.00
2023-08-12T08:53:40.014Z,100.00
2023-08-12T08:56:14.775Z,99.55
2023-08-12T08:58:42.029Z,98.33
2023-08-12T09:01:10.780Z,97.13
2023-08-12T09:03:39.367Z,100.00
2023-08-12T09:06:05.977Z,100.00
2023-08-12T09:08:33.429Z,100.00
2023-08-12T09:11:02.808Z,100.00
2023-08-12T09:13:30.087Z,97.99
2023-08-12T09:15:57.112Z,95.88
2023-08-12T09:18:25.569Z,93.64
2023-08-12T09:20:52.707Z,96.49
2023-08-12T09:23:19.618Z,97.13
2023-08-12T09:25:46.984Z,97.45
2023-08-12T09:28:14.316Z,98.66
2023-08-12T09:30:40.819Z,100.00
2023-08-12T09:33:09.382Z,100.00
2023-08-12T09:35:39.824Z,100.00
2023-08-12T09:38:09.229Z,100.00
2023-08-12T09:40:36.764Z,100.00
2023-08-12T09:43:04.222Z,100.00
2023-08-12T09:45:32.107Z,100.00
2023-08-12T09:47:58.805Z,100.00
2023-08-12T09:50:26.886Z,100.00
2023-08-12T09:52:55.026Z,100.00
2023-08-12T09:55:24.164Z,100.00
2023-08-12T09:57:59.667Z,100.00
2023-08-12T10:00:26.277Z,100.00
2023-08-12T10:02:53.907Z,100.00
2023-08-12T10:05:26.987Z,100.00
2023-08-12T10:07:54.598Z,100.00
2023-08-12T10:10:23.508Z,100.00
2023-08-12T10:12:50.811Z,100.00
2023-08-12T10:15:17.624Z,100.00
2023-08-12T10:17:45.262Z,100.00
2023-08-12T10:20:20.857Z,100.00
2023-08-12T10:22:47.843Z,100.00
2023-08-12T10:25:15.685Z,100.00
2023-08-12T10:27:42.526Z,100.00
2023-08-12T10:30:10.325Z,100.00
2023-08-12T10:32:37.743Z,100.00
2023-08-12T10:35:04.738Z,100.00
2023-08-12T10:37:34.787Z,100.00
2023-08-12T10:40:08.565Z,100.00
2023-08-12T10:42:48.417Z,100.00
2023-08-12T10:45:17.262Z,100.00
2023-08-12T10:47:49.536Z,100.00
2023-08-12T10:50:23.266Z,100.00
2023-08-12T10:52:53.495Z,100.00
2023-08-12T10:55:24.084Z,100.00
2023-08-12T10:57:54.359Z,100.00
2023-08-12T11:00:30.422Z,100.00
2023-08-12T11:02:57.918Z,100.00
2023-08-12T11:05:25.788Z,100.00
2023-08-12T11:08:02.274Z,98.74
2023-08-12T11:10:34.258Z,97.00
2023-08-12T11:13:02.501Z,96.33
2023-08-12T11:15:47.159Z,96.47
2023-08-12T11:18:17.329Z,98.03
2023-08-12T11:20:45.063Z,96.28
2023-08-12T11:23:12.138Z,97.01
2023-08-12T11:25:41.281Z,92.79
2023-08-12T11:28:08.695Z,92.62
2023-08-12T11:30:35.658Z,93.34
2023-08-12T11:33:03.384Z,90.50
2023-08-12T11:35:30.685Z,91.06
2023-08-12T11:37:58.669Z,90.99
2023-08-12T11:40:27.873Z,92.97
2023-08-12T11:42:55.475Z,91.67
2023-08-12T11:45:24.597Z,92.02
2023-08-12T11:47:54.756Z,91.90
2023-08-12T11:50:24.634Z,90.83
2023-08-12T11:52:52.984Z,90.98
2023-08-12T11:55:20.030Z,94.28
2023-08-12T11:57:47.133Z,90.11
2023-08-12T12:00:15.701Z,90.36
2023-08-12T12:02:51.598Z,90.54
2023-08-12T12:05:23.560Z,87.74
2023-08-12T12:07:51.521Z,89.23
2023-08-12T12:10:27.820Z,89.64
2023-08-12T12:12:59.489Z,90.44
2023-08-12T12:15:26.002Z,90.18
2023-08-12T12:17:53.117Z,88.75
2023-08-12T12:20:19.749Z,90.55
2023-08-12T12:22:47.740Z,91.39
2023-08-12T12:25:17.251Z,90.59
2023-08-12T12:27:46.490Z,91.06
2023-08-12T12:30:14.511Z,90.32
2023-08-12T12:32:41.291Z,90.61
2023-08-12T12:35:08.598Z,88.37
2023-08-12T12:37:35.820Z,89.41
2023-08-12T12:40:04.075Z,88.98
2023-08-12T12:42:31.564Z,86.60
2023-08-12T12:44:58.091Z,86.42
2023-08-12T12:47:24.543Z,86.59
2023-08-12T12:49:51.031Z,86.10
2023-08-12T12:52:17.487Z,86.54
2023-08-12T12:54:44.127Z,86.14
2023-08-12T12:57:10.629Z,86.94
2023-08-12T12:59:37.186Z,86.19
2023-08-12T13:02:03.734Z,90.04
2023-08-12T13:04:30.980Z,86.16
2023-08-12T13:06:57.566Z,86.92
2023-08-12T13:09:23.962Z,86.92
2023-08-12T13:11:50.479Z,84.73
2023-08-12T13:14:20.034Z,83.73
2023-08-12T13:16:46.759Z,84.62
2023-08-12T13:19:13.177Z,84.83
2023-08-12T13:21:43.024Z,85.45
2023-08-12T13:24:09.494Z,82.87
2023-08-12T13:26:35.926Z,83.63
2023-08-12T13:29:02.434Z,82.24
2023-08-12T13:31:28.987Z,82.99
2023-08-12T13:33:55.467Z,80.51
2023-08-12T13:36:21.939Z,83.44
2023-08-12T13:38:48.433Z,80.27
2023-08-12T13:41:14.926Z,80.69
2023-08-12T13:43:41.381Z,81.40
2023-08-12T13:46:07.913Z,82.59
2023-08-12T13:48:34.369Z,82.64
2023-08-12T13:51:01.928Z,79.82
2023-08-12T13:53:28.794Z,81.24
2023-08-12T13:55:55.333Z,82.42
2023-08-12T13:58:21.826Z,81.64
2023-08-12T14:00:48.686Z,82.74
2023-08-12T14:03:16.383Z,82.71
2023-08-12T14:05:43.556Z,82.03
2023-08-12T14:08:10.129Z,80.93
2023-08-12T14:10:36.602Z,80.33
2023-08-12T14:13:03.195Z,80.77
2023-08-12T14:15:29.717Z,79.89
2023-08-12T14:17:56.201Z,81.02
2023-08-12T14:20:22.664Z,79.63
2023-08-12T14:22:49.087Z,80.44
2023-08-12T14:25:15.584Z,75.58
2023-08-12T14:27:42.068Z,75.11
2023-08-12T14:30:09.243Z,76.91
2023-08-12T14:32:35.799Z,77.91
2023-08-12T14:35:02.316Z,77.21
2023-08-12T14:37:28.957Z,78.87
2023-08-12T14:39:55.908Z,78.12
2023-08-12T14:42:22.609Z,77.11
2023-08-12T14:44:49.679Z,76.92
2023-08-12T14:47:16.474Z,76.55
2023-08-12T14:49:43.115Z,76.19
2023-08-12T14:52:20.054Z,76.75
2023-08-12T14:54:47.872Z,77.63
2023-08-12T14:57:14.567Z,77.30
2023-08-12T14:59:41.209Z,77.58
2023-08-12T15:02:08.152Z,76.25
2023-08-12T15:04:35.304Z,76.63
2023-08-12T15:07:02.261Z,75.32
2023-08-12T15:09:28.811Z,75.60
2023-08-12T15:11:55.264Z,75.64
2023-08-12T15:14:21.778Z,76.35
2023-08-12T15:16:48.295Z,75.91
2023-08-12T15:19:14.789Z,75.37
2023-08-12T15:21:41.198Z,76.36
2023-08-12T15:24:07.985Z,76.12
2023-08-12T15:26:34.448Z,76.32
2023-08-12T15:29:01.072Z,75.47
2023-08-12T15:31:27.591Z,76.23
2023-08-12T15:33:54.027Z,75.03
2023-08-12T15:36:20.771Z,75.38
2023-08-12T15:38:48.746Z,74.85
2023-08-12T15:41:17.131Z,76.63
2023-08-12T15:43:44.550Z,77.10
2023-08-12T15:46:11.475Z,76.08
2023-08-12T15:48:38.068Z,76.96
2023-08-12T15:51:04.635Z,77.79
2023-08-12T15:53:31.275Z,77.48
2023-08-12T15:55:57.845Z,77.58
2023-08-12T15:58:25.292Z,77.62
2023-08-12T16:00:52.825Z,77.54
2023-08-12T16:03:20.540Z,77.42
2023-08-12T16:05:48.390Z,77.04
2023-08-12T16:08:15.042Z,78.00
2023-08-12T16:10:41.562Z,77.20
2023-08-12T16:13:08.066Z,77.31
2023-08-12T16:15:34.574Z,78.56
2023-08-12T16:18:01.050Z,80.05
2023-08-12T16:20:27.498Z,80.20
2023-08-12T16:22:54.022Z,80.86
2023-08-12T16:25:20.494Z,80.83
2023-08-12T16:27:46.947Z,80.35
2023-08-12T16:30:13.874Z,80.66
2023-08-12T16:32:40.380Z,80.18
2023-08-12T16:35:07.097Z,79.52
2023-08-12T16:37:35.596Z,79.68
2023-08-12T16:40:02.050Z,80.09
2023-08-12T16:42:28.558Z,81.15
2023-08-12T16:44:55.038Z,80.87
2023-08-12T16:47:21.464Z,79.95
2023-08-12T16:49:47.873Z,79.96
2023-08-12T16:52:14.578Z,79.45
2023-08-12T16:54:41.315Z,79.80
2023-08-12T16:57:08.742Z,78.49
2023-08-12T16:59:35.800Z,77.79
2023-08-12T17:02:02.491Z,78.74
2023-08-12T17:04:28.941Z,79.12
2023-08-12T17:06:55.368Z,79.90
2023-08-12T17:09:21.827Z,80.06
2023-08-12T17:11:48.247Z,80.46
2023-08-12T17:14:14.629Z,81.01
2023-08-12T17:16:41.356Z,81.32
2023-08-12T17:19:07.962Z,82.04
2023-08-12T17:21:34.549Z,82.29
2023-08-12T17:24:01.161Z,81.61
2023-08-12T17:26:27.645Z,80.74
2023-08-12T17:28:54.149Z,80.81
2023-08-12T17:31:20.675Z,81.62
2023-08-12T17:33:47.282Z,81.24
2023-08-12T17:36:13.762Z,80.25
2023-08-12T17:38:40.606Z,80.55
2023-08-12T17:41:07.064Z,81.28
2023-08-12T17:43:33.469Z,81.37
2023-08-12T17:46:00.043Z,81.09
2023-08-12T17:48:26.572Z,81.46
2023-08-12T17:50:52.978Z,82.13
2023-08-12T17:53:19.547Z,82.88
2023-08-12T17:55:46.297Z,83.33
2023-08-12T17:58:12.750Z,83.14
2023-08-12T18:00:39.289Z,84.07
2023-08-12T18:03:05.961Z,85.45
2023-08-12T18:05:32.497Z,85.22
2023-08-12T18:07:58.926Z,85.30
2023-08-12T18:10:27.138Z,86.14
2023-08-12T18:12:53.620Z,85.86
2023-08-12T18:15:20.048Z,86.68
2023-08-12T18:17:46.493Z,86.94
2023-08-12T18:20:13.163Z,87.02
2023-08-12T18:22:39.898Z,87.74
2023-08-12T18:25:06.427Z,88.49
2023-08-12T18:27:32.862Z,88.90
2023-08-12T18:30:01.503Z,89.23
2023-08-12T18:32:29.501Z,89.69
2023-08-12T18:34:56.479Z,89.50
2023-08-12T18:37:22.984Z,89.81
2023-08-12T18:39:49.621Z,89.54
2023-08-12T18:42:16.113Z,89.58
2023-08-12T18:44:42.597Z,90.09
2023-08-12T18:47:09.156Z,90.53
2023-08-12T18:49:35.598Z,91.20
2023-08-12T18:52:02.067Z,91.53
2023-08-12T18:54:28.507Z,91.56
2023-08-12T18:56:54.936Z,91.41
2023-08-12T18:59:23.262Z,92.25
2023-08-12T19:01:51.112Z,93.02
2023-08-12T19:04:17.782Z,93.60
2023-08-12T19:06:45.166Z,94.01
2023-08-12T19:09:11.769Z,95.18
2023-08-12T19:11:38.262Z,95.47
2023-08-12T19:14:04.857Z,96.25
2023-08-12T19:16:31.544Z,96.43
2023-08-12T19:18:59.224Z,96.86
2023-08-12T19:21:25.674Z,96.77
2023-08-12T19:23:52.104Z,97.21
2023-08-12T19:26:18.861Z,97.93
2023-08-12T19:28:45.451Z,97.89
2023-08-12T19:31:13.292Z,98.06
2023-08-12T19:33:40.098Z,98.62
2023-08-12T19:36:07.019Z,98.85
2023-08-12T19:38:33.593Z,99.09
2023-08-12T19:41:00.682Z,100.00
2023-08-12T19:43:27.227Z,100.00
2023-08-12T19:45:53.689Z,100.00
2023-08-12T19:48:20.253Z,100.00
2023-08-12T19:50:47.975Z,100.00
2023-08-12T19:53:14.457Z,100.00
2023-08-12T19:55:41.014Z,99.73
2023-08-12T19:58:07.541Z,100.00
2023-08-12T20:00:34.093Z,100.00
2023-08-12T20:03:00.590Z,100.00
2023-08-12T20:05:29.358Z,100.00
2023-08-12T20:07:55.976Z,100.00
2023-08-12T20:10:22.601Z,100.00
2023-08-12T20:12:49.468Z,100.00
2023-08-12T20:15:16.930Z,100.00
2023-08-12T20:17:44.384Z,100.00
2023-08-12T20:20:18.196Z,100.00
2023-08-12T20:22:58.925Z,100.00
2023-08-12T20:25:26.317Z,100.00
2023-08-12T20:27:52.750Z,100.00
2023-08-12T20:30:19.199Z,100.00
2023-08-12T20:32:45.661Z,100.00
2023-08-12T20:35:12.123Z,100.00
2023-08-12T20:37:38.549Z,100.00
2023-08-12T20:40:06.055Z,100.00
2023-08-12T20:42:33.684Z,100.00
2023-08-12T20:45:00.367Z,100.00
2023-08-12T20:47:27.202Z,100.00
2023-08-12T20:49:53.690Z,100.00
2023-08-12T20:52:20.353Z,100.00
2023-08-12T20:54:46.789Z,100.00
2023-08-12T20:57:14.245Z,100.00
2023-08-12T20:59:40.906Z,100.00
2023-08-12T21:02:08.119Z,100.00
2023-08-12T21:04:34.726Z,100.00
2023-08-12T21:07:01.784Z,100.00
2023-08-12T21:09:28.448Z,100.00
2023-08-12T21:11:55.005Z,100.00
2023-08-12T21:14:21.435Z,100.00
2023-08-12T21:16:48.079Z,100.00
2023-08-12T21:19:14.533Z,100.00
2023-08-12T21:21:41.661Z,100.00
2023-08-12T21:24:08.292Z,100.00
2023-08-12T21:26:34.845Z,100.00
2023-08-12T21:29:01.472Z,100.00
2023-08-12T21:31:28.063Z,100.00
2023-08-12T21:33:54.536Z,100.00
2023-08-12T21:36:20.979Z,100.00
2023-08-12T21:38:47.496Z,100.00
2023-08-12T21:41:13.947Z,100.00
2023-08-12T21:43:40.384Z,100.00
2023-08-12T21:46:06.855Z,100.00
2023-08-12T21:48:33.313Z,100.00
2023-08-12T21:50:59.782Z,100.00
2023-08-12T21:53:26.227Z,100.00
2023-08-12T21:55:52.617Z,100.00
2023-08-12T21:58:19.012Z,100.00
2023-08-12T22:00:45.425Z,100.00
2023-08-12T22:03:11.961Z,100.00
2023-08-12T22:05:38.436Z,100.00
2023-08-12T22:08:05.205Z,100.00
2023-08-12T22:10:31.681Z,100.00
2023-08-12T22:12:58.175Z,100.00
2023-08-12T22:15:24.632Z,100.00
2023-08-12T22:17:51.192Z,100.00
2023-08-12T22:20:18.526Z,100.00
2023-08-12T22:22:45.083Z,100.00
2023-08-12T22:25:11.580Z,100.00
2023-08-12T22:27:38.064Z,100.00
2023-08-12T22:30:06.218Z,100.00
2023-08-12T22:32:32.732Z,100.00
2023-08-12T22:34:59.182Z,100.00
2023-08-12T22:37:25.768Z,100.00
2023-08-12T22:39:52.277Z,100.00
2023-08-12T22:42:18.737Z,100.00
2023-08-12T22:44:45.178Z,100.00
2023-08-12T22:47:11.645Z,100.00
2023-08-12T22:49:38.054Z,100.00
2023-08-12T22:52:05.005Z,100.00
2023-08-12T22:54:31.468Z,100.00
2023-08-12T22:56:57.929Z,100.00
2023-08-12T22:59:24.447Z,100.00
2023-08-12T23:01:50.852Z,100.00
2023-08-12T23:04:17.373Z,100.00
2023-08-12T23:06:43.835Z,100.00
2023-08-12T23:09:10.320Z,100.00
2023-08-12T23:11:37.192Z,100.00
2023-08-12T23:14:03.958Z,100.00
2023-08-12T23:16:31.701Z,100.00
2023-08-12T23:18:58.279Z,100.00
2023-08-12T23:21:24.768Z,100.00
2023-08-12T23:23:55.208Z,100.00
2023-08-12T23:26:22.270Z,100.00
2023-08-12T23:28:48.853Z,100.00
2023-08-12T23:31:15.363Z,100.00
2023-08-12T23:33:41.858Z,100.00
2023-08-12T23:36:08.246Z,100.00
2023-08-12T23:38:34.686Z,100.00
2023-08-12T23:41:01.161Z,100.00
2023-08-12T23:43:27.586Z,100.00
2023-08-12T23:45:59.446Z,100.00
2023-08-12T23:48:25.973Z,100.00
2023-08-12T23:50:52.525Z,100.00
2023-08-12T23:53:19.131Z,100.00
2023-08-12T23:55:45.706Z,100.00
2023-08-12T23:58:12.766Z,100.00
